sensor_id;sensor_type;location;lat;lon;timestamp;P1;durP1;ratioP1;P2;durP2;ratioP2
6015;SDS011;3036;49.960;8.454;2024-02-21T00:01:31;9.77;;;3.37;;
6015;SDS011;3036;49.960;8.454;2024-02-21T00:03:58;8.93;;;2.90;;
6015;SDS011;3036;49.960;8.454;2024-02-21T00:06:25;7.20;;;3.40;;
6015;SDS011;3036;49.960;8.454;2024-02-21T00:08:52;7.50;;;3.57;;
6015;SDS011;3036;49.960;8.454;2024-02-21T00:11:19;3.93;;;3.10;;
6015;SDS011;3036;49.960;8.454;2024-02-21T00:13:47;7.33;;;3.40;;
6015;SDS011;3036;49.960;8.454;2024-02-21T00:16:15;8.57;;;3.23;;
6015;SDS011;3036;49.960;8.454;2024-02-21T00:18:43;12.03;;;4.00;;
6015;SDS011;3036;49.960;8.454;2024-02-21T00:21:10;8.13;;;3.50;;
6015;SDS011;3036;49.960;8.454;2024-02-21T00:23:42;6.93;;;3.30;;
6015;SDS011;3036;49.960;8.454;2024-02-21T00:26:10;4.73;;;3.37;;
6015;SDS011;3036;49.960;8.454;2024-02-21T00:28:37;7.97;;;3.33;;
6015;SDS011;3036;49.960;8.454;2024-02-21T00:31:06;9.27;;;3.70;;
6015;SDS011;3036;49.960;8.454;2024-02-21T00:33:33;9.43;;;3.50;;
6015;SDS011;3036;49.960;8.454;2024-02-21T00:36:00;8.23;;;3.67;;
6015;SDS011;3036;49.960;8.454;2024-02-21T00:38:27;14.50;;;4.60;;
6015;SDS011;3036;49.960;8.454;2024-02-21T00:40:54;10.00;;;3.73;;
6015;SDS011;3036;49.960;8.454;2024-02-21T00:43:21;6.50;;;3.60;;
6015;SDS011;3036;49.960;8.454;2024-02-21T00:45:49;6.27;;;3.63;;
6015;SDS011;3036;49.960;8.454;2024-02-21T00:48:17;10.90;;;3.77;;
6015;SDS011;3036;49.960;8.454;2024-02-21T00:50:45;7.93;;;3.50;;
6015;SDS011;3036;49.960;8.454;2024-02-21T00:53:12;8.43;;;3.80;;
6015;SDS011;3036;49.960;8.454;2024-02-21T00:55:39;6.97;;;3.90;;
6015;SDS011;3036;49.960;8.454;2024-02-21T00:58:06;7.37;;;4.07;;
6015;SDS011;3036;49.960;8.454;2024-02-21T01:00:33;6.83;;;3.53;;
6015;SDS011;3036;49.960;8.454;2024-02-21T01:03:00;7.43;;;3.80;;
6015;SDS011;3036;49.960;8.454;2024-02-21T01:05:28;10.67;;;4.13;;
6015;SDS011;3036;49.960;8.454;2024-02-21T01:07:55;9.50;;;3.93;;
6015;SDS011;3036;49.960;8.454;2024-02-21T01:10:22;8.90;;;3.70;;
6015;SDS011;3036;49.960;8.454;2024-02-21T01:12:49;8.13;;;4.50;;
6015;SDS011;3036;49.960;8.454;2024-02-21T01:15:16;9.63;;;4.03;;
6015;SDS011;3036;49.960;8.454;2024-02-21T01:17:43;10.03;;;4.63;;
6015;SDS011;3036;49.960;8.454;2024-02-21T01:20:10;10.50;;;4.50;;
6015;SDS011;3036;49.960;8.454;2024-02-21T01:22:39;10.10;;;4.40;;
6015;SDS011;3036;49.960;8.454;2024-02-21T01:25:06;9.87;;;4.40;;
6015;SDS011;3036;49.960;8.454;2024-02-21T01:27:34;6.83;;;4.50;;
6015;SDS011;3036;49.960;8.454;2024-02-21T01:30:01;7.90;;;4.70;;
6015;SDS011;3036;49.960;8.454;2024-02-21T01:32:28;7.80;;;3.77;;
6015;SDS011;3036;49.960;8.454;2024-02-21T01:34:55;6.83;;;4.37;;
6015;SDS011;3036;49.960;8.454;2024-02-21T01:37:21;4.70;;;3.83;;
6015;SDS011;3036;49.960;8.454;2024-02-21T01:39:50;6.63;;;3.53;;
6015;SDS011;3036;49.960;8.454;2024-02-21T01:42:17;11.87;;;3.93;;
6015;SDS011;3036;49.960;8.454;2024-02-21T01:44:44;7.13;;;3.57;;
6015;SDS011;3036;49.960;8.454;2024-02-21T01:47:11;5.93;;;3.60;;
6015;SDS011;3036;49.960;8.454;2024-02-21T01:49:39;9.47;;;4.00;;
6015;SDS011;3036;49.960;8.454;2024-02-21T01:52:06;7.87;;;3.47;;
6015;SDS011;3036;49.960;8.454;2024-02-21T01:54:33;9.30;;;4.20;;
6015;SDS011;3036;49.960;8.454;2024-02-21T01:57:02;7.13;;;3.70;;
6015;SDS011;3036;49.960;8.454;2024-02-21T01:59:30;8.17;;;3.77;;
6015;SDS011;3036;49.960;8.454;2024-02-21T02:01:57;4.90;;;3.77;;
6015;SDS011;3036;49.960;8.454;2024-02-21T02:04:25;5.00;;;3.90;;
6015;SDS011;3036;49.960;8.454;2024-02-21T02:06:52;9.63;;;4.50;;
6015;SDS011;3036;49.960;8.454;2024-02-21T02:09:20;9.87;;;4.50;;
6015;SDS011;3036;49.960;8.454;2024-02-21T02:11:47;8.03;;;4.30;;
6015;SDS011;3036;49.960;8.454;2024-02-21T02:14:15;4.50;;;4.10;;
6015;SDS011;3036;49.960;8.454;2024-02-21T02:16:42;9.20;;;4.27;;
6015;SDS011;3036;49.960;8.454;2024-02-21T02:19:12;6.63;;;4.23;;
6015;SDS011;3036;49.960;8.454;2024-02-21T02:21:41;9.97;;;4.20;;
6015;SDS011;3036;49.960;8.454;2024-02-21T02:24:11;7.50;;;4.00;;
6015;SDS011;3036;49.960;8.454;2024-02-21T02:26:39;9.57;;;4.80;;
6015;SDS011;3036;49.960;8.454;2024-02-21T02:29:06;9.90;;;4.50;;
6015;SDS011;3036;49.960;8.454;2024-02-21T02:31:33;5.03;;;3.67;;
6015;SDS011;3036;49.960;8.454;2024-02-21T02:34:00;9.47;;;4.40;;
6015;SDS011;3036;49.960;8.454;2024-02-21T02:36:27;9.87;;;4.30;;
6015;SDS011;3036;49.960;8.454;2024-02-21T02:38:54;9.00;;;4.33;;
6015;SDS011;3036;49.960;8.454;2024-02-21T02:41:22;10.37;;;4.27;;
6015;SDS011;3036;49.960;8.454;2024-02-21T02:43:49;8.60;;;4.27;;
6015;SDS011;3036;49.960;8.454;2024-02-21T02:46:16;8.17;;;4.00;;
6015;SDS011;3036;49.960;8.454;2024-02-21T02:48:43;5.53;;;4.23;;
6015;SDS011;3036;49.960;8.454;2024-02-21T02:51:11;7.67;;;4.33;;
6015;SDS011;3036;49.960;8.454;2024-02-21T02:53:38;9.27;;;4.60;;
6015;SDS011;3036;49.960;8.454;2024-02-21T02:56:05;13.67;;;5.20;;
6015;SDS011;3036;49.960;8.454;2024-02-21T02:58:33;10.93;;;6.10;;
6015;SDS011;3036;49.960;8.454;2024-02-21T03:01:00;11.47;;;4.80;;
6015;SDS011;3036;49.960;8.454;2024-02-21T03:03:29;15.53;;;5.37;;
6015;SDS011;3036;49.960;8.454;2024-02-21T03:05:56;6.23;;;4.60;;
6015;SDS011;3036;49.960;8.454;2024-02-21T03:08:23;9.00;;;4.50;;
6015;SDS011;3036;49.960;8.454;2024-02-21T03:10:50;13.10;;;4.60;;
6015;SDS011;3036;49.960;8.454;2024-02-21T03:13:17;6.83;;;4.63;;
6015;SDS011;3036;49.960;8.454;2024-02-21T03:15:45;8.10;;;4.50;;
6015;SDS011;3036;49.960;8.454;2024-02-21T03:18:12;12.83;;;5.50;;
6015;SDS011;3036;49.960;8.454;2024-02-21T03:20:39;10.47;;;4.73;;
6015;SDS011;3036;49.960;8.454;2024-02-21T03:23:06;10.60;;;4.97;;
6015;SDS011;3036;49.960;8.454;2024-02-21T03:25:33;6.73;;;4.93;;
6015;SDS011;3036;49.960;8.454;2024-02-21T03:28:00;7.90;;;4.50;;
6015;SDS011;3036;49.960;8.454;2024-02-21T03:30:28;15.77;;;5.37;;
6015;SDS011;3036;49.960;8.454;2024-02-21T03:32:56;5.20;;;4.70;;
6015;SDS011;3036;49.960;8.454;2024-02-21T03:35:23;10.20;;;5.30;;
6015;SDS011;3036;49.960;8.454;2024-02-21T03:37:51;11.57;;;5.50;;
6015;SDS011;3036;49.960;8.454;2024-02-21T03:40:18;9.23;;;4.90;;
6015;SDS011;3036;49.960;8.454;2024-02-21T03:42:45;11.50;;;5.47;;
6015;SDS011;3036;49.960;8.454;2024-02-21T03:45:12;12.43;;;5.17;;
6015;SDS011;3036;49.960;8.454;2024-02-21T03:47:39;12.40;;;5.17;;
6015;SDS011;3036;49.960;8.454;2024-02-21T03:50:08;9.17;;;4.77;;
6015;SDS011;3036;49.960;8.454;2024-02-21T03:52:35;7.07;;;4.80;;
6015;SDS011;3036;49.960;8.454;2024-02-21T03:55:02;7.70;;;5.03;;
6015;SDS011;3036;49.960;8.454;2024-02-21T03:57:29;11.97;;;5.97;;
6015;SDS011;3036;49.960;8.454;2024-02-21T03:59:56;8.27;;;4.87;;
6015;SDS011;3036;49.960;8.454;2024-02-21T04:02:23;7.40;;;4.77;;
6015;SDS011;3036;49.960;8.454;2024-02-21T04:04:50;10.73;;;4.73;;
6015;SDS011;3036;49.960;8.454;2024-02-21T04:07:19;8.23;;;4.97;;
6015;SDS011;3036;49.960;8.454;2024-02-21T04:09:46;7.63;;;4.57;;
6015;SDS011;3036;49.960;8.454;2024-02-21T04:12:13;9.93;;;4.57;;
6015;SDS011;3036;49.960;8.454;2024-02-21T04:14:40;10.23;;;4.77;;
6015;SDS011;3036;49.960;8.454;2024-02-21T04:17:07;9.67;;;4.63;;
6015;SDS011;3036;49.960;8.454;2024-02-21T04:19:34;8.73;;;4.87;;
6015;SDS011;3036;49.960;8.454;2024-02-21T04:22:01;12.27;;;3.90;;
6015;SDS011;3036;49.960;8.454;2024-02-21T04:24:29;8.10;;;3.83;;
6015;SDS011;3036;49.960;8.454;2024-02-21T04:26:56;9.80;;;4.10;;
6015;SDS011;3036;49.960;8.454;2024-02-21T04:29:23;12.47;;;3.63;;
6015;SDS011;3036;49.960;8.454;2024-02-21T04:31:50;8.97;;;4.23;;
6015;SDS011;3036;49.960;8.454;2024-02-21T04:34:17;8.90;;;4.30;;
6015;SDS011;3036;49.960;8.454;2024-02-21T04:36:44;12.83;;;4.40;;
6015;SDS011;3036;49.960;8.454;2024-02-21T04:39:11;8.30;;;4.20;;
6015;SDS011;3036;49.960;8.454;2024-02-21T04:41:39;7.30;;;4.00;;
6015;SDS011;3036;49.960;8.454;2024-02-21T04:44:06;5.67;;;3.90;;
6015;SDS011;3036;49.960;8.454;2024-02-21T04:46:33;10.03;;;4.80;;
6015;SDS011;3036;49.960;8.454;2024-02-21T04:49:00;6.73;;;4.10;;
6015;SDS011;3036;49.960;8.454;2024-02-21T04:51:27;7.83;;;4.53;;
6015;SDS011;3036;49.960;8.454;2024-02-21T04:53:54;8.17;;;4.10;;
6015;SDS011;3036;49.960;8.454;2024-02-21T04:56:21;9.10;;;4.80;;
6015;SDS011;3036;49.960;8.454;2024-02-21T04:58:50;8.93;;;4.63;;
6015;SDS011;3036;49.960;8.454;2024-02-21T05:01:17;11.53;;;5.03;;
6015;SDS011;3036;49.960;8.454;2024-02-21T05:03:44;10.90;;;4.03;;
6015;SDS011;3036;49.960;8.454;2024-02-21T05:06:11;5.00;;;4.20;;
6015;SDS011;3036;49.960;8.454;2024-02-21T05:08:38;10.23;;;4.20;;
6015;SDS011;3036;49.960;8.454;2024-02-21T05:11:05;6.87;;;4.03;;
6015;SDS011;3036;49.960;8.454;2024-02-21T05:13:32;8.40;;;4.67;;
6015;SDS011;3036;49.960;8.454;2024-02-21T05:16:00;5.57;;;3.67;;
6015;SDS011;3036;49.960;8.454;2024-02-21T05:18:28;5.50;;;4.07;;
6015;SDS011;3036;49.960;8.454;2024-02-21T05:20:55;12.33;;;4.40;;
6015;SDS011;3036;49.960;8.454;2024-02-21T05:23:22;8.27;;;4.50;;
6015;SDS011;3036;49.960;8.454;2024-02-21T05:25:49;8.83;;;4.27;;
6015;SDS011;3036;49.960;8.454;2024-02-21T05:28:16;9.30;;;4.00;;
6015;SDS011;3036;49.960;8.454;2024-02-21T05:30:43;8.80;;;4.63;;
6015;SDS011;3036;49.960;8.454;2024-02-21T05:33:11;5.47;;;4.23;;
6015;SDS011;3036;49.960;8.454;2024-02-21T05:35:46;8.67;;;4.37;;
6015;SDS011;3036;49.960;8.454;2024-02-21T05:38:13;10.97;;;4.43;;
6015;SDS011;3036;49.960;8.454;2024-02-21T05:40:40;6.30;;;3.93;;
6015;SDS011;3036;49.960;8.454;2024-02-21T05:43:07;8.27;;;3.77;;
6015;SDS011;3036;49.960;8.454;2024-02-21T05:45:34;6.57;;;3.90;;
6015;SDS011;3036;49.960;8.454;2024-02-21T05:48:01;8.23;;;4.30;;
6015;SDS011;3036;49.960;8.454;2024-02-21T05:50:30;6.90;;;4.27;;
6015;SDS011;3036;49.960;8.454;2024-02-21T05:52:57;8.20;;;4.07;;
6015;SDS011;3036;49.960;8.454;2024-02-21T05:55:24;11.30;;;4.50;;
6015;SDS011;3036;49.960;8.454;2024-02-21T05:57:53;8.30;;;4.00;;
6015;SDS011;3036;49.960;8.454;2024-02-21T06:00:21;7.33;;;3.87;;
6015;SDS011;3036;49.960;8.454;2024-02-21T06:02:48;7.47;;;4.23;;
6015;SDS011;3036;49.960;8.454;2024-02-21T06:05:15;14.53;;;5.00;;
6015;SDS011;3036;49.960;8.454;2024-02-21T06:07:43;10.80;;;4.10;;
6015;SDS011;3036;49.960;8.454;2024-02-21T06:10:10;11.77;;;4.53;;
6015;SDS011;3036;49.960;8.454;2024-02-21T06:12:37;6.80;;;4.20;;
6015;SDS011;3036;49.960;8.454;2024-02-21T06:15:04;6.77;;;4.43;;
6015;SDS011;3036;49.960;8.454;2024-02-21T06:17:31;13.53;;;4.20;;
6015;SDS011;3036;49.960;8.454;2024-02-21T06:19:58;14.57;;;5.07;;
6015;SDS011;3036;49.960;8.454;2024-02-21T06:22:25;8.80;;;4.40;;
6015;SDS011;3036;49.960;8.454;2024-02-21T06:24:54;5.27;;;3.90;;
6015;SDS011;3036;49.960;8.454;2024-02-21T06:27:21;10.77;;;4.70;;
6015;SDS011;3036;49.960;8.454;2024-02-21T06:29:49;5.00;;;4.13;;
6015;SDS011;3036;49.960;8.454;2024-02-21T06:32:16;13.17;;;4.80;;
6015;SDS011;3036;49.960;8.454;2024-02-21T06:34:43;12.90;;;4.40;;
6015;SDS011;3036;49.960;8.454;2024-02-21T06:37:10;9.67;;;4.23;;
6015;SDS011;3036;49.960;8.454;2024-02-21T06:39:37;6.47;;;4.63;;
6015;SDS011;3036;49.960;8.454;2024-02-21T06:42:07;13.93;;;4.63;;
6015;SDS011;3036;49.960;8.454;2024-02-21T06:44:34;9.20;;;4.43;;
6015;SDS011;3036;49.960;8.454;2024-02-21T06:47:05;7.07;;;4.27;;
6015;SDS011;3036;49.960;8.454;2024-02-21T06:49:32;10.30;;;4.73;;
6015;SDS011;3036;49.960;8.454;2024-02-21T06:51:59;6.63;;;3.90;;
6015;SDS011;3036;49.960;8.454;2024-02-21T06:54:26;6.83;;;3.53;;
6015;SDS011;3036;49.960;8.454;2024-02-21T06:56:53;12.50;;;4.10;;
6015;SDS011;3036;49.960;8.454;2024-02-21T06:59:22;7.63;;;3.93;;
6015;SDS011;3036;49.960;8.454;2024-02-21T07:01:49;5.53;;;3.90;;
6015;SDS011;3036;49.960;8.454;2024-02-21T07:04:16;7.27;;;3.70;;
6015;SDS011;3036;49.960;8.454;2024-02-21T07:06:43;6.23;;;3.00;;
6015;SDS011;3036;49.960;8.454;2024-02-21T07:09:10;9.33;;;3.80;;
6015;SDS011;3036;49.960;8.454;2024-02-21T07:11:37;9.43;;;3.80;;
6015;SDS011;3036;49.960;8.454;2024-02-21T07:14:04;7.07;;;2.93;;
6015;SDS011;3036;49.960;8.454;2024-02-21T07:16:33;6.60;;;3.13;;
6015;SDS011;3036;49.960;8.454;2024-02-21T07:19:00;4.70;;;2.97;;
6015;SDS011;3036;49.960;8.454;2024-02-21T07:21:27;4.90;;;2.80;;
6015;SDS011;3036;49.960;8.454;2024-02-21T07:23:54;4.77;;;3.13;;
6015;SDS011;3036;49.960;8.454;2024-02-21T07:26:21;3.43;;;2.93;;
6015;SDS011;3036;49.960;8.454;2024-02-21T07:28:48;13.87;;;3.70;;
6015;SDS011;3036;49.960;8.454;2024-02-21T07:31:15;7.30;;;3.40;;
6015;SDS011;3036;49.960;8.454;2024-02-21T07:33:43;4.13;;;3.10;;
6015;SDS011;3036;49.960;8.454;2024-02-21T07:36:10;6.57;;;3.53;;
6015;SDS011;3036;49.960;8.454;2024-02-21T07:38:37;8.30;;;2.90;;
6015;SDS011;3036;49.960;8.454;2024-02-21T07:41:04;5.13;;;3.20;;
6015;SDS011;3036;49.960;8.454;2024-02-21T07:43:31;4.87;;;3.10;;
6015;SDS011;3036;49.960;8.454;2024-02-21T07:45:58;8.63;;;3.50;;
6015;SDS011;3036;49.960;8.454;2024-02-21T07:48:25;6.47;;;2.90;;
6015;SDS011;3036;49.960;8.454;2024-02-21T07:50:54;5.90;;;2.80;;
6015;SDS011;3036;49.960;8.454;2024-02-21T07:53:21;6.23;;;2.80;;
6015;SDS011;3036;49.960;8.454;2024-02-21T07:55:48;2.63;;;2.40;;
6015;SDS011;3036;49.960;8.454;2024-02-21T07:58:15;7.87;;;3.00;;
6015;SDS011;3036;49.960;8.454;2024-02-21T08:00:42;5.33;;;3.00;;
6015;SDS011;3036;49.960;8.454;2024-02-21T08:03:09;8.27;;;3.27;;
6015;SDS011;3036;49.960;8.454;2024-02-21T08:05:36;6.20;;;2.70;;
6015;SDS011;3036;49.960;8.454;2024-02-21T08:08:05;4.73;;;2.63;;
6015;SDS011;3036;49.960;8.454;2024-02-21T08:10:33;4.43;;;2.80;;
6015;SDS011;3036;49.960;8.454;2024-02-21T08:13:00;6.70;;;2.73;;
6015;SDS011;3036;49.960;8.454;2024-02-21T08:15:27;3.33;;;2.70;;
6015;SDS011;3036;49.960;8.454;2024-02-21T08:17:54;4.73;;;2.73;;
6015;SDS011;3036;49.960;8.454;2024-02-21T08:20:24;3.77;;;2.87;;
6015;SDS011;3036;49.960;8.454;2024-02-21T08:22:51;3.30;;;2.53;;
6015;SDS011;3036;49.960;8.454;2024-02-21T08:25:19;6.30;;;2.40;;
6015;SDS011;3036;49.960;8.454;2024-02-21T08:27:46;6.67;;;2.63;;
6015;SDS011;3036;49.960;8.454;2024-02-21T08:30:14;6.83;;;2.30;;
6015;SDS011;3036;49.960;8.454;2024-02-21T08:32:41;10.80;;;2.70;;
6015;SDS011;3036;49.960;8.454;2024-02-21T08:35:08;3.43;;;2.50;;
6015;SDS011;3036;49.960;8.454;2024-02-21T08:37:35;8.53;;;3.00;;
6015;SDS011;3036;49.960;8.454;2024-02-21T08:40:02;7.50;;;2.67;;
6015;SDS011;3036;49.960;8.454;2024-02-21T08:42:34;10.00;;;3.10;;
6015;SDS011;3036;49.960;8.454;2024-02-21T08:45:01;4.23;;;2.30;;
6015;SDS011;3036;49.960;8.454;2024-02-21T08:47:28;5.20;;;2.23;;
6015;SDS011;3036;49.960;8.454;2024-02-21T08:49:55;8.67;;;2.90;;
6015;SDS011;3036;49.960;8.454;2024-02-21T08:52:22;11.40;;;3.03;;
6015;SDS011;3036;49.960;8.454;2024-02-21T08:54:49;4.83;;;2.33;;
6015;SDS011;3036;49.960;8.454;2024-02-21T08:57:18;6.30;;;2.60;;
6015;SDS011;3036;49.960;8.454;2024-02-21T08:59:46;6.67;;;2.40;;
6015;SDS011;3036;49.960;8.454;2024-02-21T09:02:13;2.43;;;2.23;;
6015;SDS011;3036;49.960;8.454;2024-02-21T09:04:42;6.07;;;2.30;;
6015;SDS011;3036;49.960;8.454;2024-02-21T09:07:09;9.03;;;3.00;;
6015;SDS011;3036;49.960;8.454;2024-02-21T09:09:36;2.77;;;2.43;;
6015;SDS011;3036;49.960;8.454;2024-02-21T09:12:05;6.40;;;2.90;;
6015;SDS011;3036;49.960;8.454;2024-02-21T09:14:32;6.60;;;3.47;;
6015;SDS011;3036;49.960;8.454;2024-02-21T09:17:00;6.10;;;2.60;;
6015;SDS011;3036;49.960;8.454;2024-02-21T09:19:28;3.47;;;2.10;;
6015;SDS011;3036;49.960;8.454;2024-02-21T09:21:55;8.80;;;2.30;;
6015;SDS011;3036;49.960;8.454;2024-02-21T09:24:22;6.73;;;2.70;;
6015;SDS011;3036;49.960;8.454;2024-02-21T09:26:49;2.43;;;2.17;;
6015;SDS011;3036;49.960;8.454;2024-02-21T09:29:16;3.87;;;2.30;;
6015;SDS011;3036;49.960;8.454;2024-02-21T09:31:43;4.43;;;2.40;;
6015;SDS011;3036;49.960;8.454;2024-02-21T09:34:12;6.57;;;2.37;;
6015;SDS011;3036;49.960;8.454;2024-02-21T09:36:39;4.33;;;2.60;;
6015;SDS011;3036;49.960;8.454;2024-02-21T09:39:06;2.67;;;2.17;;
6015;SDS011;3036;49.960;8.454;2024-02-21T09:41:34;4.20;;;2.60;;
6015;SDS011;3036;49.960;8.454;2024-02-21T09:44:04;3.03;;;2.43;;
6015;SDS011;3036;49.960;8.454;2024-02-21T09:46:34;6.17;;;2.20;;
6015;SDS011;3036;49.960;8.454;2024-02-21T09:49:08;8.93;;;3.00;;
6015;SDS011;3036;49.960;8.454;2024-02-21T09:51:39;5.17;;;2.63;;
6015;SDS011;3036;49.960;8.454;2024-02-21T09:54:07;6.70;;;2.30;;
6015;SDS011;3036;49.960;8.454;2024-02-21T09:56:34;4.13;;;2.40;;
6015;SDS011;3036;49.960;8.454;2024-02-21T09:59:01;6.13;;;2.20;;
6015;SDS011;3036;49.960;8.454;2024-02-21T10:01:29;6.50;;;2.53;;
6015;SDS011;3036;49.960;8.454;2024-02-21T10:03:57;5.50;;;2.60;;
6015;SDS011;3036;49.960;8.454;2024-02-21T10:06:24;6.60;;;2.20;;
6015;SDS011;3036;49.960;8.454;2024-02-21T10:08:53;6.27;;;2.60;;
6015;SDS011;3036;49.960;8.454;2024-02-21T10:11:23;9.27;;;2.33;;
6015;SDS011;3036;49.960;8.454;2024-02-21T10:13:50;8.87;;;2.70;;
6015;SDS011;3036;49.960;8.454;2024-02-21T10:16:18;5.27;;;2.67;;
6015;SDS011;3036;49.960;8.454;2024-02-21T10:18:45;6.07;;;2.40;;
6015;SDS011;3036;49.960;8.454;2024-02-21T10:21:12;3.70;;;2.40;;
6015;SDS011;3036;49.960;8.454;2024-02-21T10:23:42;9.53;;;3.03;;
6015;SDS011;3036;49.960;8.454;2024-02-21T10:26:11;5.13;;;2.20;;
6015;SDS011;3036;49.960;8.454;2024-02-21T10:28:38;6.37;;;2.13;;
6015;SDS011;3036;49.960;8.454;2024-02-21T10:31:07;6.80;;;2.83;;
6015;SDS011;3036;49.960;8.454;2024-02-21T10:33:34;3.43;;;2.70;;
6015;SDS011;3036;49.960;8.454;2024-02-21T10:36:06;10.13;;;2.87;;
6015;SDS011;3036;49.960;8.454;2024-02-21T10:38:34;6.67;;;2.50;;
6015;SDS011;3036;49.960;8.454;2024-02-21T10:41:01;3.67;;;2.50;;
6015;SDS011;3036;49.960;8.454;2024-02-21T10:43:30;7.10;;;2.43;;
6015;SDS011;3036;49.960;8.454;2024-02-21T10:46:01;6.00;;;2.80;;
6015;SDS011;3036;49.960;8.454;2024-02-21T10:48:33;5.40;;;2.47;;
6015;SDS011;3036;49.960;8.454;2024-02-21T10:51:14;6.90;;;2.30;;
6015;SDS011;3036;49.960;8.454;2024-02-21T10:53:44;6.17;;;3.37;;
6015;SDS011;3036;49.960;8.454;2024-02-21T10:56:16;7.70;;;2.80;;
6015;SDS011;3036;49.960;8.454;2024-02-21T10:58:45;4.03;;;2.47;;
6015;SDS011;3036;49.960;8.454;2024-02-21T11:01:12;3.50;;;2.50;;
6015;SDS011;3036;49.960;8.454;2024-02-21T11:03:40;6.63;;;3.03;;
6015;SDS011;3036;49.960;8.454;2024-02-21T11:06:08;6.33;;;2.83;;
6015;SDS011;3036;49.960;8.454;2024-02-21T11:08:36;4.53;;;2.60;;
6015;SDS011;3036;49.960;8.454;2024-02-21T11:11:04;6.03;;;2.50;;
6015;SDS011;3036;49.960;8.454;2024-02-21T11:13:31;5.50;;;3.07;;
6015;SDS011;3036;49.960;8.454;2024-02-21T11:16:07;8.10;;;3.17;;
6015;SDS011;3036;49.960;8.454;2024-02-21T11:18:35;7.97;;;2.77;;
6015;SDS011;3036;49.960;8.454;2024-02-21T11:21:02;7.37;;;2.60;;
6015;SDS011;3036;49.960;8.454;2024-02-21T11:23:30;6.67;;;2.53;;
6015;SDS011;3036;49.960;8.454;2024-02-21T11:26:03;3.40;;;2.33;;
6015;SDS011;3036;49.960;8.454;2024-02-21T11:28:31;3.30;;;2.50;;
6015;SDS011;3036;49.960;8.454;2024-02-21T11:31:07;8.23;;;2.53;;
6015;SDS011;3036;49.960;8.454;2024-02-21T11:33:35;6.10;;;2.67;;
6015;SDS011;3036;49.960;8.454;2024-02-21T11:36:02;3.77;;;2.27;;
6015;SDS011;3036;49.960;8.454;2024-02-21T11:38:29;7.60;;;2.40;;
6015;SDS011;3036;49.960;8.454;2024-02-21T11:40:56;7.73;;;2.40;;
6015;SDS011;3036;49.960;8.454;2024-02-21T11:43:24;8.33;;;2.60;;
6015;SDS011;3036;49.960;8.454;2024-02-21T11:45:57;3.23;;;2.43;;
6015;SDS011;3036;49.960;8.454;2024-02-21T11:48:26;6.80;;;2.67;;
6015;SDS011;3036;49.960;8.454;2024-02-21T11:50:53;8.23;;;2.73;;
6015;SDS011;3036;49.960;8.454;2024-02-21T11:53:21;7.43;;;2.20;;
6015;SDS011;3036;49.960;8.454;2024-02-21T11:55:48;6.47;;;2.13;;
6015;SDS011;3036;49.960;8.454;2024-02-21T11:58:15;6.10;;;3.10;;
6015;SDS011;3036;49.960;8.454;2024-02-21T12:00:42;4.40;;;2.33;;
6015;SDS011;3036;49.960;8.454;2024-02-21T12:03:09;4.40;;;2.00;;
6015;SDS011;3036;49.960;8.454;2024-02-21T12:05:37;7.80;;;2.53;;
6015;SDS011;3036;49.960;8.454;2024-02-21T12:08:04;2.57;;;1.27;;
6015;SDS011;3036;49.960;8.454;2024-02-21T12:10:32;6.60;;;2.67;;
6015;SDS011;3036;49.960;8.454;2024-02-21T12:13:06;7.00;;;3.13;;
6015;SDS011;3036;49.960;8.454;2024-02-21T12:15:34;8.40;;;2.50;;
6015;SDS011;3036;49.960;8.454;2024-02-21T12:18:01;5.00;;;2.13;;
6015;SDS011;3036;49.960;8.454;2024-02-21T12:20:28;3.73;;;2.17;;
6015;SDS011;3036;49.960;8.454;2024-02-21T12:22:57;7.33;;;2.23;;
6015;SDS011;3036;49.960;8.454;2024-02-21T12:25:26;4.50;;;2.10;;
6015;SDS011;3036;49.960;8.454;2024-02-21T12:27:54;5.97;;;2.80;;
6015;SDS011;3036;49.960;8.454;2024-02-21T12:30:22;3.53;;;2.30;;
6015;SDS011;3036;49.960;8.454;2024-02-21T12:32:49;5.43;;;2.50;;
6015;SDS011;3036;49.960;8.454;2024-02-21T12:35:16;4.83;;;2.33;;
6015;SDS011;3036;49.960;8.454;2024-02-21T12:37:44;2.73;;;2.40;;
6015;SDS011;3036;49.960;8.454;2024-02-21T12:40:12;4.57;;;2.53;;
6015;SDS011;3036;49.960;8.454;2024-02-21T12:42:39;6.07;;;2.30;;
6015;SDS011;3036;49.960;8.454;2024-02-21T12:45:07;5.80;;;2.90;;
6015;SDS011;3036;49.960;8.454;2024-02-21T12:47:34;6.00;;;2.47;;
6015;SDS011;3036;49.960;8.454;2024-02-21T12:50:01;6.13;;;2.40;;
6015;SDS011;3036;49.960;8.454;2024-02-21T12:52:29;6.63;;;2.80;;
6015;SDS011;3036;49.960;8.454;2024-02-21T12:54:56;6.27;;;2.10;;
6015;SDS011;3036;49.960;8.454;2024-02-21T12:57:25;5.33;;;1.80;;
6015;SDS011;3036;49.960;8.454;2024-02-21T12:59:52;2.93;;;1.87;;
6015;SDS011;3036;49.960;8.454;2024-02-21T13:02:19;3.90;;;1.80;;
6015;SDS011;3036;49.960;8.454;2024-02-21T13:04:46;4.37;;;2.30;;
6015;SDS011;3036;49.960;8.454;2024-02-21T13:07:13;2.10;;;1.47;;
6015;SDS011;3036;49.960;8.454;2024-02-21T13:09:40;5.37;;;2.07;;
6015;SDS011;3036;49.960;8.454;2024-02-21T13:12:07;2.97;;;2.10;;
6015;SDS011;3036;49.960;8.454;2024-02-21T13:14:36;4.47;;;2.07;;
6015;SDS011;3036;49.960;8.454;2024-02-21T13:17:04;4.27;;;1.90;;
6015;SDS011;3036;49.960;8.454;2024-02-21T13:19:31;8.33;;;2.00;;
6015;SDS011;3036;49.960;8.454;2024-02-21T13:21:58;3.23;;;2.13;;
6015;SDS011;3036;49.960;8.454;2024-02-21T13:24:25;3.63;;;1.60;;
6015;SDS011;3036;49.960;8.454;2024-02-21T13:26:52;3.33;;;1.77;;
6015;SDS011;3036;49.960;8.454;2024-02-21T13:29:19;4.20;;;1.70;;
6015;SDS011;3036;49.960;8.454;2024-02-21T13:31:47;3.23;;;1.50;;
6015;SDS011;3036;49.960;8.454;2024-02-21T13:34:15;6.53;;;1.60;;
6015;SDS011;3036;49.960;8.454;2024-02-21T13:36:43;3.50;;;1.37;;
6015;SDS011;3036;49.960;8.454;2024-02-21T13:39:10;1.33;;;1.27;;
6015;SDS011;3036;49.960;8.454;2024-02-21T13:41:40;3.03;;;1.37;;
6015;SDS011;3036;49.960;8.454;2024-02-21T13:44:07;1.40;;;1.30;;
6015;SDS011;3036;49.960;8.454;2024-02-21T13:46:35;3.83;;;1.60;;
6015;SDS011;3036;49.960;8.454;2024-02-21T13:49:04;4.13;;;1.13;;
6015;SDS011;3036;49.960;8.454;2024-02-21T13:51:32;2.00;;;1.57;;
6015;SDS011;3036;49.960;8.454;2024-02-21T13:54:01;4.43;;;1.40;;
6015;SDS011;3036;49.960;8.454;2024-02-21T13:56:28;3.07;;;1.20;;
6015;SDS011;3036;49.960;8.454;2024-02-21T13:58:55;7.77;;;1.47;;
6015;SDS011;3036;49.960;8.454;2024-02-21T14:01:22;3.90;;;1.23;;
6015;SDS011;3036;49.960;8.454;2024-02-21T14:03:49;5.47;;;1.57;;
6015;SDS011;3036;49.960;8.454;2024-02-21T14:06:18;3.07;;;1.30;;
6015;SDS011;3036;49.960;8.454;2024-02-21T14:08:45;2.00;;;1.07;;
6015;SDS011;3036;49.960;8.454;2024-02-21T14:11:12;3.17;;;0.90;;
6015;SDS011;3036;49.960;8.454;2024-02-21T14:13:47;4.60;;;1.30;;
6015;SDS011;3036;49.960;8.454;2024-02-21T14:16:37;3.53;;;1.10;;
6015;SDS011;3036;49.960;8.454;2024-02-21T14:19:04;2.60;;;0.97;;
6015;SDS011;3036;49.960;8.454;2024-02-21T14:21:33;3.00;;;1.43;;
6015;SDS011;3036;49.960;8.454;2024-02-21T14:24:02;5.57;;;2.57;;
6015;SDS011;3036;49.960;8.454;2024-02-21T14:26:29;5.33;;;2.47;;
6015;SDS011;3036;49.960;8.454;2024-02-21T14:28:56;3.63;;;1.47;;
6015;SDS011;3036;49.960;8.454;2024-02-21T14:31:23;3.60;;;2.43;;
6015;SDS011;3036;49.960;8.454;2024-02-21T14:33:51;4.50;;;2.07;;
6015;SDS011;3036;49.960;8.454;2024-02-21T14:36:18;4.13;;;1.77;;
6015;SDS011;3036;49.960;8.454;2024-02-21T14:38:46;5.33;;;1.80;;
6015;SDS011;3036;49.960;8.454;2024-02-21T14:41:13;5.03;;;2.13;;
6015;SDS011;3036;49.960;8.454;2024-02-21T14:43:41;2.07;;;1.80;;
6015;SDS011;3036;49.960;8.454;2024-02-21T14:46:08;3.90;;;1.90;;
6015;SDS011;3036;49.960;8.454;2024-02-21T14:48:37;2.10;;;1.60;;
6015;SDS011;3036;49.960;8.454;2024-02-21T14:51:04;2.70;;;1.70;;
6015;SDS011;3036;49.960;8.454;2024-02-21T14:53:31;3.00;;;2.23;;
6015;SDS011;3036;49.960;8.454;2024-02-21T14:56:00;6.20;;;2.00;;
6015;SDS011;3036;49.960;8.454;2024-02-21T14:58:27;2.93;;;1.37;;
6015;SDS011;3036;49.960;8.454;2024-02-21T15:00:54;5.03;;;1.40;;
6015;SDS011;3036;49.960;8.454;2024-02-21T15:03:21;4.93;;;1.63;;
6015;SDS011;3036;49.960;8.454;2024-02-21T15:05:48;3.67;;;1.40;;
6015;SDS011;3036;49.960;8.454;2024-02-21T15:08:15;3.97;;;1.97;;
6015;SDS011;3036;49.960;8.454;2024-02-21T15:10:44;7.10;;;1.90;;
6015;SDS011;3036;49.960;8.454;2024-02-21T15:13:12;4.93;;;1.70;;
6015;SDS011;3036;49.960;8.454;2024-02-21T15:15:40;3.10;;;1.90;;